Time;durP1;ratioP1;P1;durP2;ratioP2;P2;SDS_P1;SDS_P2;PMS_P1;PMS_P2;Temp;Humidity;BMP_temperature;BMP_pressure;BME280_temperature;BME280_humidity;BME280_pressure;Samples;Min_cycle;Max_cycle;Signal;HPM_P1;HPM_P2
2023/05/31 00:00:52;;;;;;;6.55;4.28;;;;;;;12.44;85.91;102372.06;5077836;28;20031;-91
2023/05/31 00:03:21;;;;;;;5.43;4.40;;;;;;;12.41;86.30;102372.44;5078003;28;20383;-91
2023/05/31 00:05:54;;;;;;;5.80;4.30;;;;;;;12.36;86.51;102378.47;5077488;28;20060;-91
2023/05/31 00:08:45;;;;;;;5.13;4.45;;;;;;;12.36;85.70;102381.19;5045606;28;20041;-91
2023/05/31 00:11:14;;;;;;;8.23;4.45;;;;;;;12.34;86.78;102380.53;5061938;28;20070;-91
2023/05/31 00:13:40;;;;;;;5.47;4.70;;;;;;;12.28;87.13;102373.97;5077117;28;20028;-91
2023/05/31 00:16:06;;;;;;;5.50;4.50;;;;;;;12.28;87.11;102375.84;5077054;28;20031;-91
2023/05/31 00:18:34;;;;;;;8.25;4.85;;;;;;;12.26;87.83;102388.78;5076979;28;20031;-91
2023/05/31 00:21:00;;;;;;;5.60;4.25;;;;;;;12.24;88.46;102380.81;5059219;28;20040;-95
2023/05/31 00:23:36;;;;;;;5.50;4.30;;;;;;;12.20;88.03;102374.06;5076671;28;20048;-91
2023/05/31 00:26:04;;;;;;;6.63;4.83;;;;;;;12.18;88.99;102367.97;5060922;28;20278;-91
2023/05/31 00:28:30;;;;;;;5.97;4.80;;;;;;;12.15;88.99;102372.94;5077476;28;20028;-91
2023/05/31 00:31:00;;;;;;;5.83;4.67;;;;;;;12.14;89.38;102377.53;5076691;28;20070;-91
2023/05/31 00:33:36;;;;;;;5.50;4.90;;;;;;;12.09;89.41;102375.41;5077397;28;20041;-91
2023/05/31 00:36:17;;;;;;;8.68;5.10;;;;;;;12.07;89.46;102376.59;5076840;28;20464;-91
2023/05/31 00:38:51;;;;;;;5.43;4.70;;;;;;;12.02;89.90;102370.91;5076545;28;20115;-91
2023/05/31 00:41:24;;;;;;;6.35;5.07;;;;;;;12.00;90.11;102368.38;5076940;28;20089;-91
2023/05/31 00:44:01;;;;;;;7.60;4.90;;;;;;;11.99;90.42;102371.25;5094985;28;20071;-91
2023/05/31 00:46:38;;;;;;;6.35;4.72;;;;;;;11.96;90.54;102372.50;5077149;28;20028;-91
2023/05/31 00:49:15;;;;;;;7.50;4.70;;;;;;;11.98;90.94;102383.19;5095674;28;20027;-91
2023/05/31 00:51:50;;;;;;;8.05;4.93;;;;;;;11.92;91.45;102387.47;5076841;28;20109;-91
2023/05/31 00:54:18;;;;;;;5.25;4.70;;;;;;;11.88;91.68;102376.09;5076919;28;20089;-91
2023/05/31 00:57:03;;;;;;;;;;;;;;;;;;;;;
2023/05/31 00:59:34;;;;;;;8.02;5.18;;;;;;;11.86;92.11;102385.50;5095434;28;20460;-91
2023/05/31 01:02:04;;;;;;;8.27;5.03;;;;;;;11.82;92.56;102378.72;5094953;28;20047;-91
2023/05/31 01:04:41;;;;;;;6.00;4.47;;;;;;;11.79;92.62;102388.09;5076405;28;20090;-91
2023/05/31 01:07:10;;;;;;;6.57;5.15;;;;;;;11.75;93.33;102384.91;5076024;28;20074;-91
2023/05/31 01:09:42;;;;;;;5.50;4.87;;;;;;;11.75;93.62;102393.06;5075977;28;20032;-91
2023/05/31 01:12:38;;;;;;;7.55;4.70;;;;;;;11.71;93.67;102388.19;5059955;28;20399;-90
2023/05/31 01:15:32;;;;;;;7.07;4.63;;;;;;;11.68;92.58;102389.41;5076234;28;20559;-91
2023/05/31 01:18:03;;;;;;;7.93;5.40;;;;;;;11.69;94.17;102392.94;5076126;28;20028;-91
2023/05/31 01:20:36;;;;;;;5.63;4.85;;;;;;;11.65;94.68;102391.63;5075946;28;20047;-91
2023/05/31 01:23:56;;;;;;;5.40;4.73;;;;;;;11.64;93.80;102389.97;5076174;28;20024;-91
2023/05/31 01:26:49;;;;;;;7.45;5.05;;;;;;;11.57;94.81;102393.44;5076567;28;20020;-91
2023/05/31 01:29:30;;;;;;;8.02;4.82;;;;;;;11.55;95.06;102395.47;5094257;28;20069;-92
2023/05/31 01:32:14;;;;;;;7.10;5.22;;;;;;;11.54;95.55;102390.22;5076320;28;20035;-92
2023/05/31 01:34:49;;;;;;;7.40;5.13;;;;;;;11.50;96.25;102381.59;5075947;28;20028;-91
2023/05/31 01:37:25;;;;;;;5.90;5.30;;;;;;;11.49;96.35;102376.34;5076603;28;20032;-91
2023/05/31 01:40:08;;;;;;;6.45;5.15;;;;;;;11.48;96.43;102378.19;5076587;28;20031;-91
2023/05/31 01:42:34;;;;;;;10.18;4.97;;;;;;;11.46;96.72;102379.44;5076197;28;20024;-91
2023/05/31 01:45:08;;;;;;;6.70;5.10;;;;;;;11.41;96.90;102378.09;5076046;28;20460;-91
2023/05/31 01:47:40;;;;;;;9.13;5.32;;;;;;;11.39;97.46;102393.72;5076197;28;20036;-91
2023/05/31 01:50:07;;;;;;;7.53;5.13;;;;;;;11.39;97.97;102380.13;5060019;28;20039;-92
2023/05/31 01:52:34;;;;;;;6.07;5.20;;;;;;;11.36;97.87;102379.69;5059703;28;20036;-91
2023/05/31 01:55:18;;;;;;;6.70;4.97;;;;;;;11.30;98.44;102372.25;5076162;28;20020;-91
2023/05/31 01:57:49;;;;;;;8.15;5.57;;;;;;;11.29;98.79;102376.00;5079722;28;20031;-91
2023/05/31 02:00:17;;;;;;;9.15;5.30;;;;;;;11.24;98.95;102363.78;5080100;28;20483;-91
2023/05/31 02:02:59;;;;;;;6.70;4.93;;;;;;;11.24;98.86;102361.09;5080058;28;20028;-91
2023/05/31 02:05:40;;;;;;;;;;;;;;;;;;;;;
2023/05/31 02:08:16;;;;;;;9.10;5.72;;;;;;;11.21;99.53;102361.44;5081638;28;20042;-90
2023/05/31 02:10:51;;;;;;;;;;;;;;;;;;;;;
2023/05/31 02:13:25;;;;;;;7.63;5.70;;;;;;;11.16;100.00;102361.16;5097606;28;20024;-91
2023/05/31 02:15:54;;;;;;;7.20;4.87;;;;;;;11.15;100.00;102361.34;5097332;28;20537;-91
2023/05/31 02:18:23;;;;;;;8.20;5.70;;;;;;;11.16;100.00;102361.16;5079432;28;20028;-91
2023/05/31 02:21:10;;;;;;;8.50;5.57;;;;;;;11.14;100.00;102359.66;5078643;28;20040;-90
2023/05/31 02:23:42;;;;;;;6.60;5.22;;;;;;;11.11;100.00;102362.75;5079655;28;20058;-91
2023/05/31 02:26:21;;;;;;;8.88;6.75;;;;;;;11.06;100.00;102355.97;5078883;28;20161;-91
2023/05/31 02:28:59;;;;;;;8.50;5.50;;;;;;;11.04;100.00;102358.03;5062585;28;20027;-91
2023/05/31 02:31:30;;;;;;;9.73;5.72;;;;;;;11.03;100.00;102367.19;5079646;28;20095;-90
2023/05/31 02:33:56;;;;;;;7.28;4.97;;;;;;;11.01;100.00;102363.84;5062950;28;20043;-90
2023/05/31 02:36:39;;;;;;;;;;;;;;;;;;;;;
2023/05/31 02:39:14;;;;;;;6.77;5.17;;;;;;;11.00;100.00;102372.16;5098077;28;20510;-90
2023/05/31 02:41:39;;;;;;;7.30;5.38;;;;;;;10.96;100.00;102374.38;5062190;28;20036;-91
2023/05/31 02:44:10;;;;;;;6.65;5.50;;;;;;;10.98;100.00;102371.47;5078877;28;20024;-91
2023/05/31 02:46:40;;;;;;;9.20;5.63;;;;;;;10.92;100.00;102364.91;5062622;28;20679;-91
2023/05/31 02:49:08;;;;;;;7.73;5.80;;;;;;;10.93;100.00;102360.34;5097022;28;20032;-91
2023/05/31 02:51:33;;;;;;;9.60;6.10;;;;;;;10.89;100.00;102365.25;5078447;28;20081;-91
2023/05/31 02:54:02;;;;;;;10.60;5.47;;;;;;;10.88;100.00;102360.88;5078493;28;20040;-90
2023/05/31 02:56:27;;;;;;;9.20;6.40;;;;;;;10.82;100.00;102356.13;5061697;28;20047;-90
2023/05/31 02:59:02;;;;;;;8.60;5.63;;;;;;;10.79;100.00;102365.50;5078217;28;20028;-90
2023/05/31 03:01:37;;;;;;;7.53;5.50;;;;;;;10.80;100.00;102367.19;5078599;28;20466;-91
2023/05/31 03:04:07;;;;;;;7.22;5.60;;;;;;;10.76;100.00;102359.59;5063682;28;20059;-91
2023/05/31 03:06:42;;;;;;;12.13;6.30;;;;;;;10.76;100.00;102376.72;5078712;28;20036;-91
2023/05/31 03:09:07;;;;;;;8.27;6.32;;;;;;;10.70;100.00;102372.00;5078157;28;20055;-91
2023/05/31 03:11:42;;;;;;;9.87;6.07;;;;;;;10.66;100.00;102366.09;5078500;28;20028;-91
2023/05/31 03:14:17;;;;;;;8.07;5.97;;;;;;;10.64;100.00;102368.13;5080695;28;20028;-91
2023/05/31 03:16:48;;;;;;;13.10;6.50;;;;;;;10.62;100.00;102369.34;5078297;28;20036;-91
2023/05/31 03:19:18;;;;;;;8.63;6.13;;;;;;;10.61;100.00;102364.94;5077692;28;20036;-91
2023/05/31 03:21:59;;;;;;;8.47;5.83;;;;;;;10.59;100.00;102364.28;5061728;28;20097;-91
2023/05/31 03:24:35;;;;;;;14.10;6.22;;;;;;;10.64;100.00;102370.00;5078909;28;20042;-90
2023/05/31 03:27:03;;;;;;;10.88;6.25;;;;;;;10.60;100.00;102364.09;5062163;28;20357;-90
2023/05/31 03:29:34;;;;;;;9.32;6.18;;;;;;;10.59;100.00;102364.28;5095840;28;20146;-90
2023/05/31 03:31:59;;;;;;;8.35;6.38;;;;;;;10.56;100.00;102362.75;5078001;28;20032;-91
2023/05/31 03:34:30;;;;;;;8.63;6.37;;;;;;;10.58;100.00;102358.00;5095973;28;20528;-91
2023/05/31 03:36:58;;;;;;;10.68;6.90;;;;;;;10.56;100.00;102360.03;5077829;28;20082;-91
2023/05/31 03:39:24;;;;;;;13.23;6.70;;;;;;;10.53;100.00;102365.84;5078074;28;20460;-90
2023/05/31 03:41:57;;;;;;;10.93;6.80;;;;;;;10.55;100.00;102365.66;5077525;28;20073;-91
2023/05/31 03:44:40;;;;;;;9.90;6.72;;;;;;;10.56;100.00;102360.03;5077973;28;20035;-91
2023/05/31 03:47:10;;;;;;;11.60;6.95;;;;;;;10.58;100.00;102359.88;5095792;28;20097;-91
2023/05/31 03:49:38;;;;;;;12.20;6.60;;;;;;;10.58;100.00;102360.69;5077419;28;20035;-91
2023/05/31 03:52:14;;;;;;;10.38;6.47;;;;;;;10.57;100.00;102366.31;5077062;28;20020;-90
2023/05/31 03:54:50;;;;;;;11.07;6.68;;;;;;;10.57;100.00;102364.47;5077883;28;20024;-91
2023/05/31 03:57:21;;;;;;;10.18;6.80;;;;;;;10.57;100.00;102363.59;5077642;28;20036;-90
2023/05/31 03:59:54;;;;;;;12.00;6.20;;;;;;;10.58;100.00;102365.28;5061707;28;20032;-90
2023/05/31 04:02:22;;;;;;;10.13;7.20;;;;;;;10.61;100.00;102367.66;5086094;28;20394;-91
2023/05/31 04:04:48;;;;;;;10.73;6.82;;;;;;;10.65;100.00;102371.69;5093588;28;20028;-91
2023/05/31 04:07:16;;;;;;;11.07;6.53;;;;;;;10.68;100.00;102361.31;5095391;28;20494;-91
2023/05/31 04:09:44;;;;;;;11.33;7.53;;;;;;;10.69;100.00;102357.59;5093730;28;20043;-90
2023/05/31 04:12:20;;;;;;;10.18;7.18;;;;;;;10.73;100.00;102362.66;5094273;28;20040;-90
2023/05/31 04:14:53;;;;;;;11.93;7.50;;;;;;;10.73;100.00;102363.50;5094437;28;20038;-91
2023/05/31 04:17:21;;;;;;;11.20;7.28;;;;;;;10.73;100.00;102358.06;5094047;28;20105;-91
2023/05/31 04:19:58;;;;;;;9.85;6.72;;;;;;;10.78;100.00;102361.09;5092476;28;20052;-92
2023/05/31 04:22:26;;;;;;;11.13;7.47;;;;;;;10.82;100.00;102367.88;5094413;28;20028;-91
2023/05/31 04:24:57;;;;;;;11.15;6.88;;;;;;;10.87;100.00;102361.88;5077489;28;20032;-91
2023/05/31 04:27:38;;;;;;;11.75;7.68;;;;;;;10.92;100.00;102364.06;5093773;28;20036;-91
2023/05/31 04:30:09;;;;;;;11.90;7.65;;;;;;;10.96;100.00;102363.50;5095486;28;20449;-90
2023/05/31 04:32:37;;;;;;;13.35;7.85;;;;;;;10.99;100.00;102362.31;5094056;28;20042;-91
2023/05/31 04:35:30;;;;;;;11.93;7.67;;;;;;;11.03;100.00;102369.91;5093753;28;20032;-91
2023/05/31 04:37:59;;;;;;;13.85;7.78;;;;;;;11.11;100.00;102365.44;5080392;28;20032;-91
2023/05/31 04:40:32;;;;;;;12.25;7.88;;;;;;;11.15;100.00;102364.91;5093696;28;20028;-91
2023/05/31 04:43:02;;;;;;;12.82;8.20;;;;;;;11.21;100.00;102369.59;5077002;28;20032;-90
2023/05/31 04:45:32;;;;;;;12.35;7.22;;;;;;;11.22;100.00;102365.88;5093713;28;20055;-90
2023/05/31 04:47:58;;;;;;;15.90;8.37;;;;;;;11.27;100.00;102375.34;5090237;28;20047;-88
2023/05/31 04:50:24;;;;;;;13.48;8.65;;;;;;;11.28;100.00;102366.16;5096160;28;20031;-90
2023/05/31 04:53:00;;;;;;;14.63;8.65;;;;;;;11.31;100.00;102365.78;5095787;28;20027;-90
2023/05/31 04:55:33;;;;;;;14.27;8.57;;;;;;;11.39;100.00;102369.28;5096489;28;20029;-90
2023/05/31 04:57:59;;;;;;;11.75;8.48;;;;;;;11.45;100.00;102362.25;5079671;28;20039;-90
2023/05/31 05:00:29;;;;;;;13.67;8.43;;;;;;;11.50;100.00;102365.28;5096375;28;20027;-89
2023/05/31 05:03:03;;;;;;;14.88;8.50;;;;;;;11.56;100.00;102369.16;5096301;28;20037;-88
2023/05/31 05:05:28;;;;;;;12.50;8.93;;;;;;;11.56;100.00;102361.00;5096164;28;20020;-84
2023/05/31 05:07:54;;;;;;;15.57;9.10;;;;;;;11.66;100.00;102367.00;5114263;28;20049;-83
2023/05/31 05:10:20;;;;;;;15.43;9.52;;;;;;;11.74;100.00;102366.06;5114139;28;20066;-84
2023/05/31 05:12:45;;;;;;;17.30;9.67;;;;;;;11.79;100.00;102377.22;5079001;28;20084;-84
2023/05/31 05:15:10;;;;;;;15.67;8.80;;;;;;;11.87;100.00;102376.28;5079170;28;20043;-83
2023/05/31 05:17:36;;;;;;;15.00;9.37;;;;;;;11.92;100.00;102374.69;5079111;28;20024;-84
2023/05/31 05:20:05;;;;;;;16.13;9.20;;;;;;;11.98;100.00;102370.41;5078888;28;20794;-84
2023/05/31 05:22:30;;;;;;;17.33;9.35;;;;;;;12.04;100.00;102375.09;5095128;28;20092;-84
2023/05/31 05:24:56;;;;;;;18.67;9.38;;;;;;;12.10;100.00;102373.50;5078095;28;20031;-85
2023/05/31 05:27:21;;;;;;;16.77;10.00;;;;;;;12.16;100.00;102374.63;5091975;28;20486;-85
2023/05/31 05:29:47;;;;;;;18.73;9.53;;;;;;;12.25;100.00;102387.97;5084151;28;20024;-85
2023/05/31 05:32:13;;;;;;;15.63;9.85;;;;;;;12.31;100.00;102385.50;5078337;28;20027;-85
2023/05/31 05:34:40;;;;;;;17.00;10.10;;;;;;;12.34;100.00;102385.13;5095379;28;20325;-85
2023/05/31 05:37:08;;;;;;;15.45;9.75;;;;;;;12.41;100.00;102383.34;5095338;28;20063;-85
2023/05/31 05:39:34;;;;;;;15.68;9.98;;;;;;;12.43;100.00;102382.13;5062014;28;20024;-85
2023/05/31 05:42:01;;;;;;;19.30;10.27;;;;;;;12.51;100.00;102380.31;5113609;28;20024;-85
2023/05/31 05:44:36;;;;;;;14.98;9.75;;;;;;;12.54;100.00;102379.94;5078668;28;20051;-85
2023/05/31 05:47:02;;;;;;;17.63;10.07;;;;;;;12.56;99.89;102378.72;5078621;28;20501;-85
2023/05/31 05:49:27;;;;;;;19.33;10.57;;;;;;;12.62;100.00;102387.97;5095251;28;20028;-84
2023/05/31 05:51:53;;;;;;;18.50;10.37;;;;;;;12.68;99.98;102381.78;5085878;28;20050;-85
2023/05/31 05:54:18;;;;;;;17.40;9.97;;;;;;;12.73;99.98;102379.31;5076436;28;20039;-85
2023/05/31 05:56:44;;;;;;;17.20;10.30;;;;;;;12.77;99.29;102374.31;5095200;28;20027;-85
2023/05/31 05:59:09;;;;;;;18.30;9.95;;;;;;;12.85;99.31;102382.38;5078155;28;20479;-85
2023/05/31 06:01:37;;;;;;;18.37;11.07;;;;;;;12.91;98.34;102383.50;5095217;28;20032;-89
2023/05/31 06:04:05;;;;;;;18.58;10.57;;;;;;;13.01;98.88;102388.59;5095382;28;20032;-86
2023/05/31 06:06:31;;;;;;;20.77;10.40;;;;;;;13.05;98.42;102388.03;5113256;28;20106;-85
2023/05/31 06:08:57;;;;;;;16.27;9.77;;;;;;;13.10;98.57;102390.19;5078428;28;20020;-85
2023/05/31 06:11:23;;;;;;;22.08;11.25;;;;;;;13.14;98.45;102383.31;5094919;28;20043;-85
2023/05/31 06:13:48;;;;;;;23.40;11.53;;;;;;;13.19;97.73;102383.56;5113149;28;20024;-85
2023/05/31 06:16:14;;;;;;;15.77;10.77;;;;;;;13.26;97.71;102386.34;5077633;28;20027;-85
2023/05/31 06:18:41;;;;;;;15.87;10.17;;;;;;;13.36;97.69;102375.13;5094791;28;20765;-85
2023/05/31 06:21:06;;;;;;;20.08;10.82;;;;;;;13.44;97.58;102384.00;5112379;28;20074;-85
2023/05/31 06:23:31;;;;;;;18.17;10.73;;;;;;;13.48;96.51;102387.22;5093779;28;20467;-85
2023/05/31 06:25:57;;;;;;;18.30;10.57;;;;;;;13.51;95.87;102384.91;5094715;28;20038;-85
2023/05/31 06:28:22;;;;;;;16.73;10.60;;;;;;;13.56;95.81;102386.22;5094607;28;20032;-85
2023/05/31 06:30:48;;;;;;;17.77;10.40;;;;;;;13.63;95.59;102387.94;5077674;28;20731;-86
2023/05/31 06:33:15;;;;;;;18.63;10.83;;;;;;;13.68;95.13;102388.22;5113103;28;20433;-85
2023/05/31 06:35:42;;;;;;;25.15;11.15;;;;;;;13.74;94.35;102393.91;5094940;28;20032;-84
2023/05/31 06:38:21;;;;;;;22.98;11.02;;;;;;;13.81;93.96;102390.16;5094506;28;20058;-84
2023/05/31 06:40:47;;;;;;;18.13;10.90;;;;;;;13.91;94.25;102394.44;5095115;28;20088;-84
2023/05/31 06:43:15;;;;;;;23.95;11.05;;;;;;;13.93;93.64;102390.44;5079842;28;20031;-85
2023/05/31 06:45:43;;;;;;;18.33;10.17;;;;;;;14.03;94.12;102399.13;5116767;28;20063;-85
2023/05/31 06:48:11;;;;;;;17.70;10.45;;;;;;;14.09;93.39;102388.47;5098184;28;20024;-85
2023/05/31 06:50:36;;;;;;;19.05;10.60;;;;;;;14.14;93.21;102385.94;5081339;28;20566;-84
2023/05/31 06:53:02;;;;;;;19.33;10.73;;;;;;;14.20;92.16;102387.88;5115443;28;20066;-85
2023/05/31 06:55:27;;;;;;;14.95;9.75;;;;;;;14.30;92.04;102392.97;5090192;28;20055;-85
2023/05/31 06:57:56;;;;;;;15.90;9.97;;;;;;;14.38;91.41;102387.34;5060793;28;20568;-88
2023/05/31 07:00:21;;;;;;;18.80;9.38;;;;;;;14.46;90.69;102391.78;5077597;28;20136;-89
2023/05/31 07:02:47;;;;;;;17.97;10.03;;;;;;;14.56;90.78;102397.72;5077722;28;20054;-86
2023/05/31 07:05:13;;;;;;;18.20;11.07;;;;;;;14.64;90.42;102399.44;5095836;28;20127;-84
2023/05/31 07:07:44;;;;;;;19.50;10.40;;;;;;;14.67;90.30;102391.66;5077666;28;20059;-85
2023/05/31 07:10:10;;;;;;;18.95;10.88;;;;;;;14.76;90.58;102394.22;5095594;28;20459;-85
2023/05/31 07:12:35;;;;;;;17.30;10.37;;;;;;;14.85;89.07;102390.25;5061133;28;20039;-87
2023/05/31 07:15:01;;;;;;;17.60;10.60;;;;;;;14.87;88.18;102386.28;5077749;28;20118;-86
2023/05/31 07:17:29;;;;;;;19.57;10.43;;;;;;;14.91;87.79;102384.81;5060976;28;20028;-85
2023/05/31 07:19:57;;;;;;;13.35;9.77;;;;;;;14.99;86.54;102386.50;5060673;28;20056;-85
2023/05/31 07:22:27;;;;;;;18.50;10.50;;;;;;;15.00;86.56;102382.72;5076374;28;20498;-86
2023/05/31 07:24:55;;;;;;;20.63;9.02;;;;;;;15.10;86.40;102376.84;5077292;28;20028;-85
2023/05/31 07:27:21;;;;;;;19.95;10.30;;;;;;;15.16;86.85;102376.03;5077471;28;20028;-86
2023/05/31 07:29:47;;;;;;;19.08;9.82;;;;;;;15.23;86.33;102374.13;5095485;28;20108;-85
2023/05/31 07:32:15;;;;;;;19.27;9.90;;;;;;;15.25;85.19;102369.31;5077547;28;20115;-85
2023/05/31 07:34:43;;;;;;;16.85;10.07;;;;;;;15.31;84.31;102370.34;5077253;28;20028;-85
2023/05/31 07:37:11;;;;;;;19.17;9.35;;;;;;;15.36;84.34;102364.25;5077010;28;20043;-85
2023/05/31 07:39:37;;;;;;;19.60;9.80;;;;;;;15.40;83.59;102363.63;5095142;28;20468;-87
2023/05/31 07:42:02;;;;;;;19.37;9.67;;;;;;;15.48;84.21;102368.03;5077477;28;20038;-87
2023/05/31 07:44:34;;;;;;;20.33;10.23;;;;;;;15.56;83.71;102369.69;5077239;28;20532;-87
2023/05/31 07:47:00;;;;;;;20.75;9.38;;;;;;;15.61;83.42;102365.28;5076932;28;20494;-87
2023/05/31 07:49:25;;;;;;;16.93;9.83;;;;;;;15.70;83.23;102365.06;5094655;28;20028;-87
2023/05/31 07:51:54;;;;;;;14.95;9.48;;;;;;;15.77;82.70;102368.63;5094343;28;20028;-86
2023/05/31 07:54:20;;;;;;;18.37;9.80;;;;;;;15.82;82.55;102363.38;5094875;28;20016;-85
2023/05/31 07:56:45;;;;;;;19.27;8.70;;;;;;;15.88;81.74;102367.16;5076537;28;20034;-87
2023/05/31 07:59:11;;;;;;;20.63;11.00;;;;;;;15.91;80.28;102367.56;5076843;28;20489;-87
2023/05/31 08:01:46;;;;;;;15.43;9.93;;;;;;;15.96;81.09;102362.31;5076551;28;20032;-86
2023/05/31 08:04:14;;;;;;;21.73;9.27;;;;;;;16.00;81.52;102353.66;5076852;28;20032;-86
2023/05/31 08:06:41;;;;;;;14.73;9.10;;;;;;;16.06;81.47;102352.78;5076867;28;20125;-87
2023/05/31 08:09:12;;;;;;;18.63;9.50;;;;;;;16.17;80.78;102354.03;5076540;28;20027;-87
2023/05/31 08:11:45;;;;;;;16.92;8.98;;;;;;;16.26;80.85;102352.72;5076463;28;20175;-87
2023/05/31 08:14:10;;;;;;;22.70;9.77;;;;;;;16.34;79.80;102354.38;5060171;28;20032;-86
2023/05/31 08:16:36;;;;;;;16.13;8.87;;;;;;;16.39;78.44;102354.59;5075990;28;20407;-87
2023/05/31 08:19:02;;;;;;;14.65;8.27;;;;;;;16.44;77.72;102354.75;5076073;28;20492;-87
2023/05/31 08:21:32;;;;;;;14.83;8.73;;;;;;;16.52;77.66;102350.91;5094995;28;20047;-87
2023/05/31 08:24:00;;;;;;;15.35;8.60;;;;;;;16.58;77.62;102350.03;5094568;28;20039;-87
2023/05/31 08:26:26;;;;;;;15.52;8.75;;;;;;;16.68;77.71;102358.63;5075990;28;20590;-87
2023/05/31 08:28:54;;;;;;;18.03;8.80;;;;;;;16.83;77.43;102350.97;5075970;28;20035;-87
2023/05/31 08:31:20;;;;;;;15.95;8.48;;;;;;;16.93;75.87;102352.41;5094220;28;20467;-87
2023/05/31 08:34:04;;;;;;;17.05;8.27;;;;;;;17.01;75.89;102354.88;5076043;28;20046;-87
2023/05/31 08:36:35;;;;;;;16.77;9.48;;;;;;;17.10;75.41;102344.47;5059972;28;20025;-87
2023/05/31 08:39:12;;;;;;;18.97;8.23;;;;;;;17.17;75.54;102340.63;5094259;28;20024;-87
2023/05/31 08:42:01;;;;;;;16.38;8.93;;;;;;;17.33;74.94;102349.34;5075981;28;20028;-87
2023/05/31 08:44:30;;;;;;;14.82;7.63;;;;;;;17.44;73.47;102343.13;5094433;28;20020;-87
2023/05/31 08:47:17;;;;;;;16.10;7.30;;;;;;;17.57;73.49;102338.56;5093976;28;20059;-87
2023/05/31 08:49:44;;;;;;;14.27;8.32;;;;;;;17.67;71.39;102341.63;5076078;28;20032;-87
2023/05/31 08:52:10;;;;;;;16.47;7.63;;;;;;;17.80;71.22;102346.16;5075743;28;20403;-87
2023/05/31 08:54:49;;;;;;;;;;;;;;;;;;;;;
2023/05/31 08:57:17;;;;;;;16.33;8.15;;;;;;;17.98;71.32;102332.47;5094406;28;20038;-88
2023/05/31 09:00:08;;;;;;;11.93;7.50;;;;;;;18.12;70.39;102330.41;5075855;28;20020;-87
2023/05/31 09:02:33;;;;;;;20.58;7.47;;;;;;;18.26;69.45;102328.31;5062505;28;20032;-87
2023/05/31 09:05:02;;;;;;;17.08;8.38;;;;;;;18.33;68.61;102329.06;5074850;28;20039;-88
2023/05/31 09:07:47;;;;;;;18.57;8.43;;;;;;;18.45;68.74;102328.28;5076029;28;20472;-88
2023/05/31 09:10:14;;;;;;;16.67;7.40;;;;;;;18.61;68.44;102319.38;5075720;28;20023;-88
2023/05/31 09:12:46;;;;;;;14.77;6.65;;;;;;;18.79;66.66;102325.91;5075627;28;20027;-87
2023/05/31 09:15:18;;;;;;;12.30;7.15;;;;;;;18.89;66.28;102327.03;5093540;28;20384;-89
2023/05/31 09:17:45;;;;;;;19.50;7.38;;;;;;;19.03;66.19;102332.31;5076250;28;20103;-88
2023/05/31 09:20:13;;;;;;;14.47;7.00;;;;;;;19.08;64.83;102319.53;5093712;28;20116;-88
2023/05/31 09:22:46;;;;;;;14.75;7.38;;;;;;;19.18;64.60;102316.22;5074696;28;20063;-88
2023/05/31 09:25:12;;;;;;;14.75;7.65;;;;;;;19.29;64.23;102320.03;5059313;28;20040;-87
2023/05/31 09:27:39;;;;;;;17.37;6.80;;;;;;;19.44;64.99;102314.91;5075369;28;20028;-88
2023/05/31 09:30:14;;;;;;;12.15;6.82;;;;;;;19.57;62.89;102308.31;5058486;28;20127;-88
2023/05/31 09:32:40;;;;;;;14.77;6.85;;;;;;;19.74;61.05;102310.34;5093427;28;20086;-88
2023/05/31 09:35:20;;;;;;;13.65;6.78;;;;;;;19.88;61.72;102308.19;5075483;28;20487;-88
2023/05/31 09:38:06;;;;;;;15.03;6.77;;;;;;;20.06;61.84;102308.00;5075414;28;20369;-88
2023/05/31 09:40:33;;;;;;;10.30;5.80;;;;;;;20.18;59.22;102299.69;5075279;28;20062;-88
2023/05/31 09:42:58;;;;;;;13.95;6.43;;;;;;;20.26;58.86;102290.22;5058752;28;20044;-87
2023/05/31 09:45:28;;;;;;;12.38;5.97;;;;;;;20.42;58.05;102294.13;5075173;28;20125;-88
2023/05/31 09:47:53;;;;;;;9.60;6.15;;;;;;;20.51;57.20;102296.22;5075274;28;20093;-88
2023/05/31 09:50:25;;;;;;;10.33;5.47;;;;;;;20.59;57.09;102283.13;5075016;28;20024;-88
2023/05/31 09:53:00;;;;;;;12.77;5.80;;;;;;;20.68;57.46;102274.22;5074541;28;20115;-88
2023/05/31 09:55:42;;;;;;;12.48;5.53;;;;;;;20.89;56.92;102291.13;5093641;28;20058;-89
2023/05/31 09:58:07;;;;;;;12.07;5.82;;;;;;;21.00;54.67;102281.09;5075447;28;20035;-88
2023/05/31 10:00:55;;;;;;;;;;;;;;;;;;;;;
2023/05/31 10:03:23;;;;;;;9.77;5.03;;;;;;;21.43;54.50;102276.75;5093385;28;20025;-89
2023/05/31 10:05:49;;;;;;;15.30;5.55;;;;;;;21.61;52.65;102277.59;5074724;28;20043;-87
2023/05/31 10:08:17;;;;;;;16.63;5.50;;;;;;;21.78;52.63;102285.84;5077509;28;20468;-90
2023/05/31 10:10:45;;;;;;;16.00;5.20;;;;;;;21.82;51.77;102282.31;5074721;28;20032;-88
2023/05/31 10:13:16;;;;;;;8.60;4.88;;;;;;;21.86;51.09;102283.44;5092936;28;20074;-88
2023/05/31 10:15:48;;;;;;;11.73;5.87;;;;;;;22.11;51.43;102271.03;5075117;28;20024;-88
2023/05/31 10:18:16;;;;;;;13.18;5.00;;;;;;;22.31;50.72;102270.44;5095425;28;20058;-88
2023/05/31 10:20:51;;;;;;;9.57;4.50;;;;;;;22.53;50.08;102270.41;5061841;28;20139;-88
2023/05/31 10:23:27;;;;;;;11.93;4.53;;;;;;;22.71;48.70;102268.38;5077739;28;20505;-88
2023/05/31 10:26:17;;;;;;;10.07;4.72;;;;;;;22.82;48.51;102269.28;5096892;28;20032;-89
2023/05/31 10:28:56;;;;;;;9.80;4.07;;;;;;;22.92;47.30;102261.88;5078349;28;20027;-89
2023/05/31 10:31:54;;;;;;;13.35;4.30;;;;;;;23.16;48.42;102253.22;5078435;28;20433;-88
2023/05/31 10:34:29;;;;;;;14.88;5.35;;;;;;;23.26;46.18;102247.75;5078546;28;20460;-90
2023/05/31 10:37:05;;;;;;;12.95;4.93;;;;;;;23.45;45.85;102234.28;5062446;28;20130;-88
2023/05/31 10:40:05;;;;;;;12.07;4.32;;;;;;;23.60;46.47;102236.31;5078970;28;20077;-88
2023/05/31 10:42:51;;;;;;;9.47;3.90;;;;;;;23.89;45.93;102238.69;5063491;28;20442;-87
2023/05/31 10:45:30;;;;;;;12.77;3.60;;;;;;;24.15;43.70;102230.41;5078337;28;20020;-90
2023/05/31 10:48:09;;;;;;;12.20;3.80;;;;;;;24.40;43.83;102229.63;5097457;28;20036;-89
2023/05/31 10:50:34;;;;;;;7.45;3.20;;;;;;;24.58;41.44;102233.81;5078166;28;20036;-89
2023/05/31 10:53:15;;;;;;;6.83;3.50;;;;;;;24.84;42.05;102223.56;5078132;28;20369;-88
2023/05/31 10:55:43;;;;;;;8.20;3.15;;;;;;;25.12;40.54;102217.69;5077909;28;20062;-88
2023/05/31 10:58:31;;;;;;;10.13;3.65;;;;;;;25.28;41.22;102216.53;5078125;28;20027;-90
2023/05/31 11:01:03;;;;;;;8.82;3.55;;;;;;;25.63;39.83;102217.56;5078332;28;20043;-88
2023/05/31 11:03:31;;;;;;;7.20;3.07;;;;;;;25.79;37.67;102220.25;5077942;28;20036;-87
2023/05/31 11:06:05;;;;;;;10.45;4.03;;;;;;;25.90;37.99;102221.88;5079766;28;20468;-90
2023/05/31 11:08:32;;;;;;;12.05;4.00;;;;;;;26.19;37.43;102215.59;5077685;28;20039;-88
2023/05/31 11:11:32;;;;;;;11.15;3.70;;;;;;;26.61;38.34;102208.59;5077995;28;20097;-88
2023/05/31 11:14:25;;;;;;;7.63;3.33;;;;;;;27.22;36.08;102203.56;5077827;28;20082;-87
2023/05/31 11:16:53;;;;;;;7.90;3.30;;;;;;;27.94;33.65;102197.09;5077797;28;20099;-88
2023/05/31 11:19:40;;;;;;;9.93;3.80;;;;;;;30.08;33.55;102207.38;5077622;28;20388;-88
2023/05/31 11:22:22;;;;;;;9.18;3.95;;;;;;;33.21;28.53;102209.59;5077282;28;20078;-89
2023/05/31 11:24:52;;;;;;;10.02;3.72;;;;;;;35.62;24.52;102204.28;5077426;28;20028;-89
2023/05/31 11:27:22;;;;;;;13.45;3.60;;;;;;;37.47;22.43;102202.50;5060803;28;20036;-89
2023/05/31 11:29:56;;;;;;;17.80;4.00;;;;;;;38.89;21.11;102184.31;5076898;28;20471;-89
2023/05/31 11:32:42;;;;;;;6.65;3.25;;;;;;;40.16;21.24;102193.47;5078028;28;20028;-90
2023/05/31 11:35:15;;;;;;;7.47;3.58;;;;;;;41.03;18.58;102195.97;5076207;28;20032;-89
2023/05/31 11:37:42;;;;;;;13.18;3.55;;;;;;;41.69;16.07;102192.28;5077300;28;20376;-88
2023/05/31 11:40:22;;;;;;;6.78;3.83;;;;;;;42.67;16.67;102182.03;5095672;28;20028;-88
2023/05/31 11:42:51;;;;;;;7.70;3.63;;;;;;;43.32;14.84;102186.84;5077225;28;20032;-89
2023/05/31 11:45:25;;;;;;;10.10;4.00;;;;;;;43.91;15.85;102174.84;5077086;28;20070;-88